Time,TemperatureF,DewpointF,PressureIn,WindDirection,WindDirectionDegrees,WindSpeedMPH,WindSpeedGustMPH,Humidity,HourlyPrecipIn,Conditions,Clouds,dailyrainin,SoftwareType,DateUTC
2013-07-13 00:01:00,70.9,70.9,29.99,NNW,336,0.0,1.0,100,0.00,,,0.00,WeatherDisplay:10.37,2013-07-13 04:01:00,
2013-07-13 00:24:00,70.9,70.9,29.99,NNW,336,0.0,0.0,100,0.00,,,0.00,WeatherDisplay:10.37,2013-07-13 04:24:00,
2013-07-13 01:01:00,70.5,70.5,29.98,NNW,336,0.0,0.0,100,0.00,,,0.00,WeatherDisplay:10.37,2013-07-13 05:01:00,
2013-07-13 02:01:00,70.1,70.1,29.97,NNW,336,0.0,0.0,100,0.00,,,0.00,WeatherDisplay:10.37,2013-07-13 06:01:00,
2013-07-13 03:01:00,69.9,69.9,29.98,NNW,336,0.0,0.0,100,0.00,,,0.00,WeatherDisplay:10.37,2013-07-13 07:01:00,
2013-07-13 04:01:00,70.4,70.4,29.98,NNW,336,0.0,0.0,100,0.00,,,0.00,WeatherDisplay:10.37,2013-07-13 08:01:00,
2013-07-13 05:01:00,70.9,70.9,30.00,North,356,0.0,0.0,100,0.00,,,0.00,WeatherDisplay:10.37,2013-07-13 09:01:00,
2013-07-13 06:01:00,71.0,71.0,30.00,North,356,0.0,0.0,100,0.00,,,0.00,WeatherDisplay:10.37,2013-07-13 10:01:00,
2013-07-13 07:00:00,71.3,71.3,30.01,North,356,0.0,0.0,100,0.00,,,0.00,WeatherDisplay:10.37,2013-07-13 11:00:00,
2013-07-13 08:00:00,72.1,72.1,30.04,NW,323,0.0,1.0,100,0.00,,,0.00,WeatherDisplay:10.37,2013-07-13 12:00:00,
2013-07-13 09:00:00,73.2,73.2,30.06,NNE,29,0.0,1.0,100,0.00,,,0.00,WeatherDisplay:10.37,2013-07-13 13:00:00,
2013-07-13 10:00:00,73.4,73.4,30.06,NNE,29,0.0,1.0,100,0.07,RA,,0.07,WeatherDisplay:10.37,2013-07-13 14:00:00,
2013-07-13 11:00:00,75.0,75.0,30.06,ESE,104,0.0,3.0,100,0.00,,,0.07,WeatherDisplay:10.37,2013-07-13 15:00:00,
2013-07-13 12:00:00,76.2,76.2,30.08,SE,126,0.0,3.0,100,0.00,,,0.07,WeatherDisplay:10.37,2013-07-13 16:00:00,
2013-07-13 13:00:00,77.9,77.9,30.08,North,3,0.0,2.0,100,0.01,,,0.08,WeatherDisplay:10.37,2013-07-13 17:00:00,
2013-07-13 14:00:00,76.5,76.5,30.08,North,4,0.0,0.0,100,0.22,RA,,0.30,WeatherDisplay:10.37,2013-07-13 18:00:00,
2013-07-13 15:00:00,79.8,79.8,30.07,ENE,75,0.0,2.0,100,0.16,,,0.46,WeatherDisplay:10.37,2013-07-13 19:00:00,
2013-07-13 16:00:00,78.4,78.4,30.06,NNE,25,0.0,1.0,100,0.00,,,0.46,WeatherDisplay:10.37,2013-07-13 20:00:00,
2013-07-13 17:00:00,78.4,78.4,30.06,SE,132,0.0,4.0,100,0.01,,,0.47,WeatherDisplay:10.37,2013-07-13 21:00:00,
2013-07-13 18:00:00,77.3,77.3,30.06,North,349,0.0,4.0,100,0.02,,,0.49,WeatherDisplay:10.37,2013-07-13 22:00:00,
2013-07-13 19:00:00,76.3,76.3,30.07,NNE,28,0.0,4.0,100,0.00,,,0.49,WeatherDisplay:10.37,2013-07-13 23:00:00,
2013-07-13 20:00:00,75.1,75.1,30.08,ENE,67,0.0,7.0,100,0.00,,,0.49,WeatherDisplay:10.37,2013-07-14 00:00:00,
2013-07-13 21:00:00,73.8,73.8,30.10,ENE,66,0.0,6.0,100,0.00,,,0.49,WeatherDisplay:10.37,2013-07-14 01:00:00,
2013-07-13 22:00:00,73.2,73.2,30.11,NE,44,0.0,1.0,100,0.00,,,0.49,WeatherDisplay:10.37,2013-07-14 02:00:00,
2013-07-13 23:00:00,73.0,73.0,30.13,East,82,0.0,2.0,100,0.00,,,0.49,WeatherDisplay:10.37,2013-07-14 03:00:00,